createdAt,value
2022-10-31T00:02:09.220Z,100179.41
2022-10-31T00:04:58.900Z,100162.91
2022-10-31T00:07:48.359Z,100171.63
2022-10-31T00:10:40.835Z,100173.09
2022-10-31T00:13:30.373Z,100180.78
2022-10-31T00:16:22.452Z,100195.34
2022-10-31T00:19:11.638Z,100204.13
2022-10-31T00:22:00.830Z,100205.50
2022-10-31T00:24:49.652Z,100207.47
2022-10-31T00:27:38.706Z,100221.00
2022-10-31T00:30:27.797Z,100247.97
2022-10-31T00:33:17.087Z,100238.13
2022-10-31T00:36:08.129Z,100244.78
2022-10-31T00:38:57.349Z,100259.38
2022-10-31T00:41:47.049Z,100258.53
2022-10-31T00:44:36.435Z,100247.84
2022-10-31T00:47:28.722Z,100254.41
2022-10-31T00:50:17.567Z,100249.88
2022-10-31T00:53:07.503Z,100252.38
2022-10-31T00:55:56.512Z,100259.03
2022-10-31T00:58:45.755Z,100253.28
2022-10-31T01:01:35.636Z,100243.28
2022-10-31T01:04:26.494Z,100254.94
2022-10-31T01:07:16.069Z,100251.13
2022-10-31T01:10:08.150Z,100242.47
2022-10-31T01:12:57.499Z,100254.78
2022-10-31T01:15:46.396Z,100256.94
2022-10-31T01:18:36.950Z,100248.47
2022-10-31T01:21:28.978Z,100241.03
2022-10-31T01:24:20.805Z,100246.19
2022-10-31T01:27:09.775Z,100239.78
2022-10-31T01:29:59.256Z,100229.66
2022-10-31T01:32:48.996Z,100234.22
2022-10-31T01:35:38.599Z,100240.91
2022-10-31T01:38:27.742Z,100242.81
2022-10-31T01:41:23.490Z,100260.00
2022-10-31T01:44:18.673Z,100270.50
2022-10-31T01:47:17.295Z,100257.56
2022-10-31T01:50:11.915Z,100269.19
2022-10-31T01:53:02.531Z,100261.75
2022-10-31T01:55:52.706Z,100263.66
2022-10-31T01:58:43.642Z,100259.16
2022-10-31T02:01:33.442Z,100249.69
2022-10-31T02:04:26.850Z,100262.19
2022-10-31T02:07:33.558Z,100264.28
2022-10-31T02:10:24.582Z,100258.94
2022-10-31T02:13:14.957Z,100258.41
2022-10-31T02:16:12.379Z,100263.16
2022-10-31T02:19:01.822Z,100246.56
2022-10-31T02:22:07.230Z,100249.47
2022-10-31T02:25:19.177Z,100248.06
2022-10-31T02:28:16.597Z,100246.97
2022-10-31T02:31:21.501Z,100250.53
2022-10-31T02:34:23.807Z,100245.13
2022-10-31T02:37:21.011Z,100246.16
2022-10-31T02:40:13.115Z,100238.53
2022-10-31T02:43:33.746Z,100229.19
2022-10-31T02:46:27.192Z,100229.97
2022-10-31T02:49:33.531Z,100238.06
2022-10-31T02:52:31.309Z,100236.19
2022-10-31T02:55:25.420Z,100234.50
2022-10-31T02:58:22.827Z,100236.19
2022-10-31T03:01:39.645Z,100240.75
2022-10-31T03:05:08.183Z,100240.31
2022-10-31T03:08:22.331Z,100237.75
2022-10-31T03:11:12.617Z,100245.34
2022-10-31T03:14:34.974Z,100249.09
2022-10-31T03:17:31.728Z,100257.16
2022-10-31T03:20:25.812Z,100250.50
2022-10-31T03:23:17.553Z,100246.38
2022-10-31T03:26:12.603Z,100231.47
2022-10-31T03:29:11.142Z,100224.66
2022-10-31T03:32:09.202Z,100218.22
2022-10-31T03:35:01.439Z,100225.69
2022-10-31T03:37:52.337Z,100231.72
2022-10-31T03:40:46.144Z,100223.88
2022-10-31T03:43:40.898Z,100237.38
2022-10-31T03:46:30.494Z,100228.25
2022-10-31T03:49:20.638Z,100224.53
2022-10-31T03:52:20.058Z,100216.25
2022-10-31T03:55:12.365Z,100210.06
2022-10-31T03:58:11.433Z,100211.31
2022-10-31T04:01:00.504Z,100209.88
2022-10-31T04:03:53.647Z,100203.47
2022-10-31T04:06:45.466Z,100201.34
2022-10-31T04:09:38.995Z,100199.44
2022-10-31T04:12:29.709Z,100211.91
2022-10-31T04:15:40.141Z,100193.63
2022-10-31T04:18:29.420Z,100189.69
2022-10-31T04:21:18.760Z,100200.47
2022-10-31T04:24:08.411Z,100199.63
2022-10-31T04:26:57.804Z,100194.84
2022-10-31T04:29:50.869Z,100206.03
2022-10-31T04:32:41.196Z,100217.59
2022-10-31T04:35:29.784Z,100229.81
2022-10-31T04:38:18.960Z,100264.00
2022-10-31T04:41:08.863Z,100261.31
2022-10-31T04:44:14.603Z,100250.91
2022-10-31T04:47:04.596Z,100244.69
2022-10-31T04:49:54.730Z,100229.25
2022-10-31T04:52:44.581Z,100225.53
2022-10-31T04:55:40.834Z,100225.53
2022-10-31T04:58:44.363Z,100211.81
2022-10-31T05:01:34.957Z,100222.97
2022-10-31T05:04:24.034Z,100210.94
2022-10-31T05:07:16.849Z,100208.06
2022-10-31T05:10:06.139Z,100186.47
2022-10-31T05:13:01.249Z,100193.94
2022-10-31T05:16:08.819Z,100193.94
2022-10-31T05:19:26.486Z,100186.50
2022-10-31T05:22:52.568Z,100171.13
2022-10-31T05:25:43.261Z,100159.56
2022-10-31T05:28:32.930Z,100167.47
2022-10-31T05:31:22.350Z,100171.66
2022-10-31T05:34:16.557Z,100171.44
2022-10-31T05:37:23.482Z,100158.59
2022-10-31T05:40:14.202Z,100144.09
2022-10-31T05:43:05.697Z,100141.84
2022-10-31T05:45:56.224Z,100140.41
2022-10-31T05:49:04.591Z,100144.47
2022-10-31T05:52:12.715Z,100144.91
2022-10-31T05:55:10.918Z,100139.28
2022-10-31T05:58:04.646Z,100135.78
2022-10-31T06:00:56.007Z,100127.69
2022-10-31T06:03:46.364Z,100123.78
2022-10-31T06:06:37.842Z,100114.72
2022-10-31T06:09:27.226Z,100106.59
2022-10-31T06:12:20.328Z,100101.41
2022-10-31T06:15:41.431Z,100105.59
2022-10-31T06:18:33.894Z,100105.59
2022-10-31T06:21:23.116Z,100113.88
2022-10-31T06:24:13.751Z,100118.03
2022-10-31T06:27:25.709Z,100110.97
2022-10-31T06:30:15.500Z,100108.06
2022-10-31T06:33:07.506Z,100108.06
2022-10-31T06:36:00.696Z,100111.81
2022-10-31T06:38:50.293Z,100118.25
2022-10-31T06:41:43.621Z,100118.66
2022-10-31T06:44:33.484Z,100127.59
2022-10-31T06:47:25.328Z,100112.63
2022-10-31T06:50:28.996Z,100104.75
2022-10-31T06:53:18.290Z,100104.31
2022-10-31T06:56:08.738Z,100113.03
2022-10-31T06:59:05.569Z,100121.16
2022-10-31T07:02:27.212Z,100124.63
2022-10-31T07:05:17.119Z,100122.81
2022-10-31T07:08:08.538Z,100118.63
2022-10-31T07:10:59.762Z,100115.94
2022-10-31T07:13:51.006Z,100120.09
2022-10-31T07:16:39.871Z,100114.09
2022-10-31T07:19:29.695Z,100113.84
2022-10-31T07:22:20.516Z,100115.91
2022-10-31T07:25:10.541Z,100130.84
2022-10-31T07:28:17.896Z,100138.72
2022-10-31T07:31:13.485Z,100131.69
2022-10-31T07:34:02.972Z,100143.47
2022-10-31T07:36:57.498Z,100145.97
2022-10-31T07:39:46.829Z,100156.16
2022-10-31T07:42:40.656Z,100164.88
2022-10-31T07:45:32.983Z,100170.69
2022-10-31T07:48:48.918Z,100178.59
2022-10-31T07:51:57.972Z,100177.34
2022-10-31T07:55:05.311Z,100179.41
2022-10-31T07:58:11.307Z,100190.19
2022-10-31T08:01:03.555Z,100186.03
2022-10-31T08:04:01.722Z,100187.06
2022-10-31T08:07:19.930Z,100188.94
2022-10-31T08:10:16.392Z,100203.88
2022-10-31T08:13:07.841Z,100216.31
2022-10-31T08:16:06.108Z,100209.25
2022-10-31T08:19:01.557Z,100208.00
2022-10-31T08:21:57.384Z,100223.56
2022-10-31T08:24:50.000Z,100233.06
2022-10-31T08:27:39.351Z,100241.19
2022-10-31T08:30:32.449Z,100237.84
2022-10-31T08:33:39.788Z,100243.00
2022-10-31T08:36:58.596Z,100246.09
2022-10-31T08:39:55.294Z,100235.94
2022-10-31T08:42:44.499Z,100246.72
2022-10-31T08:45:35.477Z,100224.09
2022-10-31T08:48:25.898Z,100232.34
2022-10-31T08:51:15.256Z,100245.19
2022-10-31T08:54:08.475Z,100241.06
2022-10-31T08:57:14.986Z,100234.81
2022-10-31T09:00:07.610Z,100231.47
2022-10-31T09:03:23.939Z,100232.50
2022-10-31T09:06:16.011Z,100228.53
2022-10-31T09:09:05.976Z,100249.09
2022-10-31T09:11:56.482Z,100255.50
2022-10-31T09:14:46.951Z,100273.34
2022-10-31T09:17:53.558Z,100274.16
2022-10-31T09:20:51.483Z,100282.88
2022-10-31T09:23:40.899Z,100281.19
2022-10-31T09:26:32.692Z,100288.66
2022-10-31T09:29:41.843Z,100290.22
2022-10-31T09:32:33.988Z,100301.50
2022-10-31T09:35:25.772Z,100311.91
2022-10-31T09:38:22.177Z,100315.19
2022-10-31T09:41:29.802Z,100317.69
2022-10-31T09:44:34.459Z,100327.44
2022-10-31T09:47:55.086Z,100331.16
2022-10-31T09:51:15.229Z,100335.03
2022-10-31T09:54:30.313Z,100332.19
2022-10-31T09:57:22.388Z,100347.34
2022-10-31T10:00:24.241Z,100355.44
2022-10-31T10:03:19.159Z,100361.28
2022-10-31T10:06:26.355Z,100383.03
2022-10-31T10:09:38.424Z,100386.06
2022-10-31T10:13:14.466Z,100364.44
2022-10-31T10:16:40.546Z,100365.66
2022-10-31T10:19:33.860Z,100372.59
2022-10-31T10:22:33.776Z,100386.28
2022-10-31T10:25:49.364Z,100388.88
2022-10-31T10:28:41.881Z,100398.19
2022-10-31T10:31:36.399Z,100422.81
2022-10-31T10:34:26.962Z,100412.22
2022-10-31T10:37:38.922Z,100419.84
2022-10-31T10:40:29.817Z,100430.38
2022-10-31T10:43:30.213Z,100430.09
2022-10-31T10:47:08.892Z,100434.63
2022-10-31T10:49:57.852Z,100431.88
2022-10-31T10:53:01.794Z,100447.38
2022-10-31T10:56:05.217Z,100445.72
2022-10-31T10:58:57.780Z,100446.91
2022-10-31T11:01:50.194Z,100440.88
2022-10-31T11:04:42.928Z,100447.13
2022-10-31T11:07:44.850Z,100439.41
2022-10-31T11:10:38.124Z,100449.91
2022-10-31T11:13:28.475Z,100455.47
2022-10-31T11:16:29.370Z,100457.34
2022-10-31T11:19:28.571Z,100463.38
2022-10-31T11:22:19.980Z,100454.00
2022-10-31T11:25:25.983Z,100455.03
2022-10-31T11:28:15.081Z,100455.19
2022-10-31T11:31:14.041Z,100454.38
2022-10-31T11:34:05.661Z,100465.78
2022-10-31T11:36:54.558Z,100488.34
2022-10-31T11:39:45.862Z,100504.50
2022-10-31T11:42:42.964Z,100522.72
2022-10-31T11:45:35.626Z,100537.91
2022-10-31T11:48:26.442Z,100528.34
2022-10-31T11:51:25.001Z,100527.50
2022-10-31T11:54:33.794Z,100537.91
2022-10-31T11:57:55.364Z,100543.28
2022-10-31T12:00:55.168Z,100551.44
2022-10-31T12:03:57.955Z,100576.53
2022-10-31T12:06:49.326Z,100571.00
2022-10-31T12:09:39.685Z,100597.28
2022-10-31T12:13:04.238Z,100603.31
2022-10-31T12:15:58.593Z,100607.31
2022-10-31T12:19:00.242Z,100609.00
2022-10-31T12:22:27.538Z,100611.50
2022-10-31T12:25:43.572Z,100622.09
2022-10-31T12:29:04.559Z,100619.75
2022-10-31T12:32:08.608Z,100622.28
2022-10-31T12:35:27.999Z,100624.78
2022-10-31T12:38:23.332Z,100621.44
2022-10-31T12:41:34.423Z,100623.09
2022-10-31T12:44:27.041Z,100618.38
2022-10-31T12:47:43.934Z,100609.47
2022-10-31T12:50:55.029Z,100615.69
2022-10-31T12:54:27.111Z,100618.66
2022-10-31T12:57:30.714Z,100616.34
2022-10-31T13:00:23.268Z,100621.91
2022-10-31T13:03:43.857Z,100638.53
2022-10-31T13:06:44.620Z,100628.38
2022-10-31T13:09:45.433Z,100625.16
2022-10-31T13:12:37.433Z,100629.56
2022-10-31T13:15:31.180Z,100630.75
2022-10-31T13:18:30.528Z,100624.00
2022-10-31T13:22:00.283Z,100627.16
2022-10-31T13:25:01.692Z,100610.19
2022-10-31T13:28:16.105Z,100611.84
2022-10-31T13:31:06.786Z,100618.97
2022-10-31T13:34:00.765Z,100624.66
2022-10-31T13:37:16.533Z,100615.56
2022-10-31T13:40:15.802Z,100601.44
2022-10-31T13:43:23.432Z,100587.34
2022-10-31T13:49:32.870Z,100570.69
2022-10-31T13:52:27.064Z,100566.78
2022-10-31T13:55:38.157Z,100558.88
2022-10-31T13:58:32.039Z,100564.00
2022-10-31T14:01:25.659Z,100571.22
2022-10-31T14:04:49.496Z,100563.16
2022-10-31T14:07:45.895Z,100568.38
2022-10-31T14:10:50.000Z,100556.09
2022-10-31T14:13:44.953Z,100565.84
2022-10-31T14:16:39.945Z,100555.63
2022-10-31T14:19:29.032Z,100558.69
2022-10-31T14:22:23.905Z,100563.88
2022-10-31T14:25:33.290Z,100569.09
2022-10-31T14:28:33.663Z,100581.97
2022-10-31T14:31:42.537Z,100570.19
2022-10-31T14:34:37.038Z,100576.41
2022-10-31T14:37:45.142Z,100574.91
2022-10-31T14:40:55.416Z,100585.13
2022-10-31T14:44:05.070Z,100579.81
2022-10-31T14:47:22.800Z,100587.34
2022-10-31T14:50:39.022Z,100578.25
2022-10-31T14:53:37.812Z,100574.06
2022-10-31T14:56:37.192Z,100582.34
2022-10-31T14:59:32.980Z,100591.06
2022-10-31T15:02:39.760Z,100579.53
2022-10-31T15:05:29.843Z,100576.75
2022-10-31T15:08:44.800Z,100559.22
2022-10-31T15:11:40.155Z,100560.44
2022-10-31T15:14:31.373Z,100561.81
2022-10-31T15:17:21.219Z,100559.13
2022-10-31T15:20:12.958Z,100556.59
2022-10-31T15:23:02.372Z,100558.28
2022-10-31T15:25:51.702Z,100559.13
2022-10-31T15:28:41.039Z,100563.66
2022-10-31T15:31:31.355Z,100552.91
2022-10-31T15:34:43.307Z,100534.34
2022-10-31T15:37:34.737Z,100542.13
2022-10-31T15:40:25.898Z,100546.50
2022-10-31T15:43:19.345Z,100533.03
2022-10-31T15:46:10.690Z,100545.84
2022-10-31T15:48:59.978Z,100535.81
2022-10-31T15:51:54.076Z,100531.28
2022-10-31T15:54:51.348Z,100527.44
2022-10-31T15:57:49.163Z,100525.41
2022-10-31T16:00:40.304Z,100517.53
2022-10-31T16:03:32.104Z,100515.56
2022-10-31T16:06:25.730Z,100507.50
2022-10-31T16:09:26.134Z,100523.09
2022-10-31T16:12:19.990Z,100512.69
2022-10-31T16:15:19.515Z,100512.31
2022-10-31T16:18:08.205Z,100509.63
2022-10-31T16:20:58.811Z,100500.72
2022-10-31T16:23:49.100Z,100502.19
2022-10-31T16:26:37.924Z,100496.81
2022-10-31T16:29:44.842Z,100502.84
2022-10-31T16:32:36.118Z,100516.31
2022-10-31T16:35:48.094Z,100507.94
2022-10-31T16:38:37.619Z,100502.56
2022-10-31T16:41:27.794Z,100504.25
2022-10-31T16:44:24.211Z,100501.38
2022-10-31T16:47:18.183Z,100498.03
2022-10-31T16:50:13.474Z,100488.09
2022-10-31T16:53:13.855Z,100478.56
2022-10-31T16:56:05.489Z,100478.34
2022-10-31T16:58:54.495Z,100473.16
2022-10-31T17:01:47.445Z,100475.66
2022-10-31T17:07:30.017Z,100470.66
2022-10-31T17:10:21.415Z,100475.66
2022-10-31T17:13:37.180Z,100472.97
2022-10-31T17:16:29.295Z,100466.13
2022-10-31T17:19:19.164Z,100473.34
2022-10-31T17:22:08.457Z,100468.97
2022-10-31T17:24:58.054Z,100459.44
2022-10-31T17:27:47.569Z,100468.31
2022-10-31T17:30:40.361Z,100456.75
2022-10-31T17:33:49.771Z,100458.56
2022-10-31T17:36:38.751Z,100442.44
2022-10-31T17:39:37.117Z,100432.69
2022-10-31T17:42:26.589Z,100434.38
2022-10-31T17:45:15.429Z,100433.34
2022-10-31T17:48:05.000Z,100423.59
2022-10-31T17:50:54.066Z,100423.97
2022-10-31T17:53:44.578Z,100411.25
2022-10-31T17:56:33.419Z,100404.53
2022-10-31T17:59:22.452Z,100394.53
2022-10-31T18:02:15.047Z,100400.28
2022-10-31T18:05:07.791Z,100398.97
2022-10-31T18:08:00.870Z,100398.97
2022-10-31T18:10:52.933Z,100395.63
2022-10-31T18:13:41.939Z,100400.38
2022-10-31T18:16:31.061Z,100399.72
2022-10-31T18:19:20.029Z,100400.06
2022-10-31T18:22:09.289Z,100402.09
2022-10-31T18:25:01.892Z,100408.50
2022-10-31T18:27:51.574Z,100413.22
2022-10-31T18:30:42.073Z,100406.19
2022-10-31T18:33:31.643Z,100410.91
2022-10-31T18:36:20.838Z,100404.00
2022-10-31T18:39:09.933Z,100411.91
2022-10-31T18:41:59.465Z,100414.78
2022-10-31T18:44:49.187Z,100417.66
2022-10-31T18:47:41.151Z,100414.97
2022-10-31T18:50:30.224Z,100418.47
2022-10-31T18:53:23.527Z,100410.59
2022-10-31T18:56:12.926Z,100417.00
2022-10-31T18:59:05.717Z,100418.00
2022-10-31T19:01:55.610Z,100423.75
2022-10-31T19:04:44.668Z,100407.63
2022-10-31T19:07:36.925Z,100412.16
2022-10-31T19:10:26.321Z,100404.94
2022-10-31T19:13:16.604Z,100400.56
2022-10-31T19:16:11.653Z,100410.47
2022-10-31T19:19:01.020Z,100399.72
2022-10-31T19:21:49.927Z,100399.25
2022-10-31T19:24:39.457Z,100404.63
2022-10-31T19:27:29.066Z,100399.25
2022-10-31T19:30:18.201Z,100399.44
2022-10-31T19:33:06.648Z,100398.78
2022-10-31T19:36:16.131Z,100401.28
2022-10-31T19:39:05.421Z,100402.97
2022-10-31T19:41:55.077Z,100412.03
2022-10-31T19:44:44.159Z,100414.72
2022-10-31T19:47:33.258Z,100422.16
2022-10-31T19:50:23.129Z,100440.09
2022-10-31T19:53:11.985Z,100446.34
2022-10-31T19:56:01.718Z,100449.38
2022-10-31T19:58:51.256Z,100448.38
2022-10-31T20:01:40.850Z,100449.03
2022-10-31T20:04:30.165Z,100457.09
2022-10-31T20:07:19.348Z,100461.81
2022-10-31T20:10:09.603Z,100466.53
2022-10-31T20:12:58.727Z,100460.94
2022-10-31T20:15:48.300Z,100463.81
2022-10-31T20:18:41.222Z,100461.59
2022-10-31T20:21:33.064Z,100465.50
2022-10-31T20:24:22.722Z,100457.75
2022-10-31T20:27:12.419Z,100451.72
2022-10-31T20:30:01.764Z,100446.34
2022-10-31T20:32:50.723Z,100444.50
2022-10-31T20:35:42.956Z,100447.34
2022-10-31T20:38:31.507Z,100446.84
2022-10-31T20:41:21.191Z,100464.16
2022-10-31T20:44:09.919Z,100462.13
2022-10-31T20:46:58.928Z,100470.19
2022-10-31T20:49:48.244Z,100469.88
2022-10-31T20:52:39.390Z,100476.06
2022-10-31T20:55:28.580Z,100474.22
2022-10-31T20:58:17.693Z,100481.63
2022-10-31T21:01:13.144Z,100495.38
2022-10-31T21:04:02.315Z,100503.44
2022-10-31T21:06:51.474Z,100504.81
2022-10-31T21:09:40.931Z,100505.81
2022-10-31T21:12:30.451Z,100510.66
2022-10-31T21:15:24.298Z,100506.13
2022-10-31T21:18:13.845Z,100510.84
2022-10-31T21:21:03.739Z,100511.88
2022-10-31T21:24:01.530Z,100517.25
2022-10-31T21:26:52.995Z,100521.97
2022-10-31T21:29:43.284Z,100530.69
2022-10-31T21:32:32.366Z,100528.16
2022-10-31T21:35:21.381Z,100532.03
2022-10-31T21:38:11.327Z,100541.13
2022-10-31T21:41:04.825Z,100542.78
2022-10-31T21:43:56.864Z,100545.66
2022-10-31T21:46:48.273Z,100553.53
2022-10-31T21:49:37.380Z,100552.53
2022-10-31T21:52:26.404Z,100556.03
2022-10-31T21:55:15.630Z,100568.00
2022-10-31T21:58:04.572Z,100558.91
2022-10-31T22:00:55.142Z,100558.06
2022-10-31T22:03:46.813Z,100569.31
2022-10-31T22:06:36.644Z,100568.47
2022-10-31T22:09:25.389Z,100568.66
2022-10-31T22:12:16.631Z,100567.66
2022-10-31T22:15:06.042Z,100579.22
2022-10-31T22:17:57.587Z,100580.06
2022-10-31T22:20:46.625Z,100590.81
2022-10-31T22:23:36.234Z,100587.47
2022-10-31T22:26:30.354Z,100590.81
2022-10-31T22:29:21.332Z,100599.91
2022-10-31T22:32:10.798Z,100607.97
2022-10-31T22:34:59.749Z,100590.81
2022-10-31T22:37:48.891Z,100602.03
2022-10-31T22:40:38.884Z,100599.53
2022-10-31T22:43:28.795Z,100613.66
2022-10-31T22:46:21.204Z,100610.44
2022-10-31T22:49:15.462Z,100621.41
2022-10-31T22:52:06.379Z,100630.28
2022-10-31T22:54:58.397Z,100633.16
2022-10-31T22:57:48.302Z,100638.19
2022-10-31T23:00:37.849Z,100653.47
2022-10-31T23:03:29.970Z,100659.34
2022-10-31T23:06:24.756Z,100660.16
2022-10-31T23:09:16.522Z,100661.38
2022-10-31T23:12:23.473Z,100666.75
2022-10-31T23:15:12.794Z,100665.72
2022-10-31T23:18:18.845Z,100678.16
2022-10-31T23:21:38.846Z,100680.84
2022-10-31T23:24:29.791Z,100674.13
2022-10-31T23:27:24.414Z,100685.19
2022-10-31T23:30:13.735Z,100684.69
2022-10-31T23:33:05.660Z,100688.91
2022-10-31T23:35:54.696Z,100695.78
2022-10-31T23:38:43.777Z,100700.31
2022-10-31T23:41:32.710Z,100705.34
2022-10-31T23:44:22.178Z,100706.69
2022-10-31T23:47:11.276Z,100699.78
2022-10-31T23:50:00.451Z,100702.97
2022-10-31T23:52:49.895Z,100708.72
2022-10-31T23:55:39.448Z,100706.69
2022-10-31T23:58:28.339Z,100711.06
